Time;durP1;ratioP1;P1;durP2;ratioP2;P2;SDS_P1;SDS_P2;PMS_P1;PMS_P2;Temp;Humidity;BMP_temperature;BMP_pressure;BME280_temperature;BME280_humidity;BME280_pressure;Samples;Min_cycle;Max_cycle;Signal;HPM_P1;HPM_P2
2023/01/02 00:00:00;;;;;;;12.48;10.30;;;;;;;21.53;44.36;96264.63;4986300;28;20050;-60
2023/01/02 00:02:26;;;;;;;14.00;10.25;;;;;;;21.48;44.56;96255.16;4984203;28;20064;-60
2023/01/02 00:04:52;;;;;;;12.18;10.05;;;;;;;21.20;44.39;96206.94;4983360;28;20402;-60
2023/01/02 00:07:18;;;;;;;11.85;9.73;;;;;;;21.71;44.36;96286.97;4984055;28;20102;-60
2023/01/02 00:09:43;;;;;;;11.73;9.70;;;;;;;21.60;44.18;96264.28;4983753;28;20061;-59
2023/01/02 00:12:09;;;;;;;13.10;10.02;;;;;;;21.67;44.45;96280.22;4982612;28;20058;-60
2023/01/02 00:14:34;;;;;;;11.45;9.50;;;;;;;21.64;44.46;96260.16;4984104;28;20093;-60
2023/01/02 00:16:59;;;;;;;12.13;10.23;;;;;;;21.65;44.20;96267.09;4981616;28;20050;-60
2023/01/02 00:19:25;;;;;;;11.65;9.80;;;;;;;21.58;44.55;96261.25;4986155;28;20046;-59
2023/01/02 00:21:50;;;;;;;12.20;10.15;;;;;;;21.05;44.53;96175.53;5014123;28;20109;-61
2023/01/02 00:24:16;;;;;;;14.65;10.52;;;;;;;21.64;44.55;96270.28;4983033;28;20050;-62
2023/01/02 00:26:41;;;;;;;10.82;9.73;;;;;;;21.62;44.56;96278.16;4977341;28;20027;-60
2023/01/02 00:29:07;;;;;;;11.13;9.93;;;;;;;21.46;44.52;96248.69;4984001;28;20046;-60
2023/01/02 00:31:32;;;;;;;12.55;9.85;;;;;;;21.07;44.35;96183.97;4999812;28;20053;-62
2023/01/02 00:33:57;;;;;;;12.85;10.38;;;;;;;21.63;44.52;96276.94;4986811;28;20061;-60
2023/01/02 00:36:23;;;;;;;11.70;10.02;;;;;;;21.54;44.83;96266.16;4983019;28;20045;-60
2023/01/02 00:38:48;;;;;;;12.00;9.70;;;;;;;21.62;44.32;96272.72;5017210;28;20030;-59
2023/01/02 00:41:14;;;;;;;11.52;9.55;;;;;;;21.61;44.58;96271.19;4969040;28;20089;-60
2023/01/02 00:43:39;;;;;;;12.68;10.20;;;;;;;20.35;44.49;96086.06;4986577;28;20097;-60
2023/01/02 00:46:05;;;;;;;11.88;9.63;;;;;;;21.59;44.49;96274.38;4986967;28;20061;-60
2023/01/02 00:48:30;;;;;;;12.55;10.32;;;;;;;21.41;44.62;96249.31;4968670;28;20046;-62
2023/01/02 00:50:55;;;;;;;12.43;10.20;;;;;;;21.56;44.60;96283.47;4989768;28;20399;-60
2023/01/02 00:53:21;;;;;;;13.60;10.52;;;;;;;21.56;44.83;96274.56;4985418;28;20034;-60
2023/01/02 00:55:47;;;;;;;11.40;9.93;;;;;;;21.59;44.57;96273.66;4987108;28;20050;-60
2023/01/02 00:58:12;;;;;;;13.48;10.75;;;;;;;21.50;44.70;96265.56;4985608;28;20038;-61
2023/01/02 01:00:38;;;;;;;13.05;10.38;;;;;;;21.48;44.88;96262.59;4991028;28;20062;-61
2023/01/02 01:03:03;;;;;;;12.35;10.43;;;;;;;21.57;44.40;96270.66;4985420;28;20100;-60
2023/01/02 01:05:29;;;;;;;12.45;9.70;;;;;;;21.51;44.60;96273.25;4985576;28;20739;-60
2023/01/02 01:07:54;;;;;;;11.60;9.98;;;;;;;21.45;44.68;96258.06;4985280;28;20038;-60
2023/01/02 01:10:20;;;;;;;11.98;9.98;;;;;;;21.44;44.57;96267.41;4984794;28;20049;-61
2023/01/02 01:12:46;;;;;;;13.02;10.43;;;;;;;21.42;44.82;96253.53;4984964;28;20042;-61
2023/01/02 01:15:11;;;;;;;12.88;10.77;;;;;;;21.36;44.60;96247.25;4985526;28;20057;-60
2023/01/02 01:17:37;;;;;;;12.20;10.43;;;;;;;21.36;44.62;96239.09;4986213;28;20034;-62
2023/01/02 01:20:02;;;;;;;13.70;10.93;;;;;;;21.52;44.73;96263.13;4987260;28;20048;-61
2023/01/02 01:22:28;;;;;;;12.10;10.48;;;;;;;21.52;44.68;96271.28;4985447;28;20042;-61
2023/01/02 01:24:53;;;;;;;12.50;10.10;;;;;;;21.52;44.56;96268.56;4985622;28;20682;-61
2023/01/02 01:27:19;;;;;;;12.15;10.85;;;;;;;21.52;44.50;96268.56;4985053;28;20038;-61
2023/01/02 01:29:44;;;;;;;12.45;10.32;;;;;;;21.51;44.61;96267.09;4983725;28;20030;-60
2023/01/02 01:32:09;;;;;;;13.43;10.55;;;;;;;21.36;44.71;96249.97;4987975;28;20034;-60
2023/01/02 01:34:35;;;;;;;12.85;10.57;;;;;;;21.49;44.70;96269.50;5000412;28;20050;-60
2023/01/02 01:37:00;;;;;;;13.68;10.75;;;;;;;21.49;44.84;96269.50;5016048;28;20047;-60
2023/01/02 01:39:26;;;;;;;12.32;10.20;;;;;;;21.49;44.73;96270.28;4984791;28;20051;-61
2023/01/02 01:41:51;;;;;;;12.38;11.02;;;;;;;21.44;44.53;96259.25;4983642;28;20038;-61
2023/01/02 01:44:46;;;;;;;13.65;11.25;;;;;;;21.47;44.79;96255.63;4972540;28;20034;-60
2023/01/02 01:47:23;;;;;;;12.75;10.07;;;;;;;21.36;44.77;96239.09;4983403;28;20080;-61
2023/01/02 01:49:50;;;;;;;13.40;10.30;;;;;;;21.39;44.62;96249.03;4985667;28;20046;-61
2023/01/02 01:52:18;;;;;;;13.13;10.38;;;;;;;20.69;44.73;96145.22;4980362;28;20097;-61
2023/01/02 01:54:55;;;;;;;13.52;11.13;;;;;;;20.72;44.82;96147.00;4983158;28;20084;-60
2023/01/02 01:57:27;;;;;;;13.55;11.02;;;;;;;21.46;44.71;96251.41;4999232;28;20042;-61
2023/01/02 01:59:52;;;;;;;13.77;11.23;;;;;;;21.45;44.68;96252.63;4984666;28;20057;-61
2023/01/02 02:02:18;;;;;;;12.93;11.27;;;;;;;21.38;44.83;96236.66;4984873;28;20038;-60
2023/01/02 02:04:44;;;;;;;13.10;10.55;;;;;;;21.36;44.81;96232.91;5015289;28;20466;-60
2023/01/02 02:07:09;;;;;;;13.85;11.18;;;;;;;21.44;44.83;96245.66;5015244;28;20438;-60
2023/01/02 02:09:56;;;;;;;13.60;11.55;;;;;;;21.43;44.71;96241.44;4999801;28;20047;-60
2023/01/02 02:12:22;;;;;;;13.75;11.45;;;;;;;21.35;44.46;96232.16;4982186;28;20137;-61
2023/01/02 02:14:47;;;;;;;14.35;11.45;;;;;;;21.42;44.76;96237.25;4987085;28;20038;-62
2023/01/02 02:17:25;;;;;;;13.18;11.45;;;;;;;20.73;44.64;96138.41;4982696;28;20187;-61
2023/01/02 02:20:03;;;;;;;14.02;11.27;;;;;;;21.42;44.80;96242.69;4983076;28;20054;-61
2023/01/02 02:22:34;;;;;;;12.57;10.73;;;;;;;21.42;44.74;96248.13;5018819;28;20088;-60
2023/01/02 02:25:17;;;;;;;12.82;11.23;;;;;;;20.02;44.60;96057.50;4972421;28;20069;-60
2023/01/02 02:28:20;;;;;;;14.18;11.07;;;;;;;21.39;44.72;96248.28;4986608;28;20392;-60
2023/01/02 02:30:52;;;;;;;14.45;11.65;;;;;;;21.41;44.99;96245.88;4979302;28;20058;-59
2023/01/02 02:33:17;;;;;;;12.68;11.10;;;;;;;21.40;44.69;96261.41;4983136;28;20080;-58
2023/01/02 02:35:52;;;;;;;14.07;11.75;;;;;;;21.30;44.48;96240.97;4983739;28;20491;-60
2023/01/02 02:38:46;;;;;;;13.93;11.82;;;;;;;21.39;44.80;96249.03;4999125;28;20542;-60
2023/01/02 02:41:40;;;;;;;14.55;12.10;;;;;;;21.39;44.91;96251.00;4972950;28;20514;-60
2023/01/02 02:44:19;;;;;;;13.65;11.75;;;;;;;21.36;44.69;96249.97;4983807;28;20064;-60
2023/01/02 02:47:05;;;;;;;14.90;12.23;;;;;;;21.38;44.73;96246.78;4981786;28;21415;-60
2023/01/02 02:49:33;;;;;;;14.02;11.75;;;;;;;21.36;44.73;96239.09;4984405;28;20058;-61
2023/01/02 02:51:59;;;;;;;13.70;11.32;;;;;;;21.35;44.63;96232.16;4981407;28;20483;-58
2023/01/02 02:54:53;;;;;;;14.55;12.75;;;;;;;21.37;44.65;96232.44;4980968;28;20119;-60
2023/01/02 02:57:18;;;;;;;14.50;11.98;;;;;;;21.27;44.73;96225.59;4970864;28;20046;-60
2023/01/02 02:59:44;;;;;;;14.85;12.32;;;;;;;20.12;44.35;96046.16;4999969;28;20553;-60
2023/01/02 03:02:13;;;;;;;14.73;12.10;;;;;;;21.31;44.89;96219.97;4999477;28;20030;-60
2023/01/02 03:04:39;;;;;;;14.90;11.85;;;;;;;21.34;44.72;96224.47;4982273;28;20062;-60
2023/01/02 03:07:13;;;;;;;14.52;11.75;;;;;;;21.21;44.54;96194.88;4983108;28;20073;-60
2023/01/02 03:09:56;;;;;;;14.13;12.07;;;;;;;21.33;44.79;96212.88;4979771;28;20104;-61
2023/01/02 03:12:39;;;;;;;14.57;12.15;;;;;;;21.17;44.69;96194.28;4977089;28;20061;-60
2023/01/02 03:15:14;;;;;;;14.10;12.02;;;;;;;21.33;44.63;96212.88;4981298;28;20053;-60
2023/01/02 03:18:12;;;;;;;15.40;12.77;;;;;;;21.33;44.77;96222.97;4983866;28;20502;-61
2023/01/02 03:20:43;;;;;;;16.05;12.75;;;;;;;21.32;44.76;96211.34;4975028;28;20063;-60
2023/01/02 03:23:14;;;;;;;14.98;12.88;;;;;;;21.24;44.26;96231.97;4966254;28;20864;-60
2023/01/02 03:25:40;;;;;;;15.15;12.48;;;;;;;21.19;44.75;96200.00;4949561;28;20464;-60
2023/01/02 03:28:06;;;;;;;14.45;12.18;;;;;;;21.30;44.85;96219.25;4987476;28;20112;-61
2023/01/02 03:30:32;;;;;;;16.08;12.20;;;;;;;21.30;44.77;96230.09;4987271;28;20078;-60
2023/01/02 03:33:10;;;;;;;16.33;12.55;;;;;;;21.32;44.79;96226.91;4981388;28;20043;-61
2023/01/02 03:35:37;;;;;;;16.08;12.68;;;;;;;21.19;44.65;96208.13;4981675;28;20048;-60
2023/01/02 03:38:04;;;;;;;15.40;12.50;;;;;;;21.21;44.59;96215.81;5017262;28;20176;-60
2023/01/02 03:40:32;;;;;;;15.57;13.00;;;;;;;21.28;44.66;96229.78;4973006;28;20171;-60
2023/01/02 03:43:05;;;;;;;16.15;12.98;;;;;;;21.26;44.68;96234.97;4997531;28;20128;-60
2023/01/02 03:45:32;;;;;;;14.65;12.45;;;;;;;21.28;44.83;96243.38;4965107;28;20545;-60
2023/01/02 03:47:57;;;;;;;14.82;12.25;;;;;;;21.27;44.77;96247.34;4982254;28;20064;-60
2023/01/02 03:50:34;;;;;;;14.40;12.52;;;;;;;21.29;44.72;96244.88;4983740;28;20030;-60
2023/01/02 03:53:00;;;;;;;15.52;13.35;;;;;;;20.98;44.72;96203.81;4980658;28;20042;-61
2023/01/02 03:55:25;;;;;;;15.30;12.98;;;;;;;21.25;44.87;96249.75;4979983;28;20081;-60
2023/01/02 03:57:53;;;;;;;14.88;12.73;;;;;;;21.13;44.61;96231.72;4999252;28;20069;-62
2023/01/02 04:00:19;;;;;;;15.60;12.93;;;;;;;21.26;44.66;96253.97;4969879;28;20193;-61
2023/01/02 04:02:58;;;;;;;15.98;13.32;;;;;;;21.23;44.65;96249.47;4997323;28;20038;-61
2023/01/02 04:05:30;;;;;;;15.43;13.10;;;;;;;21.24;44.87;96248.25;4987375;28;20498;-60
2023/01/02 04:08:01;;;;;;;16.73;13.43;;;;;;;20.72;44.98;96171.44;4990426;28;20054;-60
2023/01/02 04:10:27;;;;;;;15.10;12.73;;;;;;;21.25;44.85;96262.59;4981378;28;20046;-60
2023/01/02 04:12:55;;;;;;;14.85;12.75;;;;;;;21.21;44.98;96268.22;4968706;28;20108;-60
2023/01/02 04:15:24;;;;;;;15.88;13.32;;;;;;;21.21;44.72;96260.06;4985620;28;20057;-60
2023/01/02 04:17:55;;;;;;;15.25;13.30;;;;;;;20.42;44.86;96142.69;4968020;28;20071;-60
2023/01/02 04:20:22;;;;;;;15.05;12.77;;;;;;;21.20;45.13;96269.41;4977872;28;20042;-60
2023/01/02 04:23:17;;;;;;;16.70;13.38;;;;;;;21.13;44.76;96253.47;4979319;28;20051;-60
2023/01/02 04:26:07;;;;;;;16.38;14.07;;;;;;;21.20;44.63;96263.97;4997852;28;20073;-60
2023/01/02 04:28:32;;;;;;;14.50;12.82;;;;;;;21.17;44.80;96275.03;5016650;28;20129;-60
2023/01/02 04:31:34;;;;;;;16.92;13.63;;;;;;;21.20;44.74;96269.41;4985907;28;20563;-60
2023/01/02 04:34:00;;;;;;;15.48;13.25;;;;;;;20.83;44.74;96218.53;4970055;28;20050;-60
2023/01/02 04:36:26;;;;;;;15.45;13.05;;;;;;;20.86;45.12;96225.03;4985118;28;20121;-61
2023/01/02 04:38:51;;;;;;;16.67;14.00;;;;;;;19.84;44.89;96073.84;4992414;28;20038;-60
2023/01/02 04:41:25;;;;;;;16.67;13.65;;;;;;;21.17;44.91;96275.78;4987436;28;20030;-60
2023/01/02 04:43:52;;;;;;;16.88;13.90;;;;;;;20.99;44.90;96248.75;4985030;28;20053;-61
2023/01/02 04:46:17;;;;;;;16.50;12.98;;;;;;;21.15;44.54;96278.22;4986097;28;20061;-60
2023/01/02 04:48:43;;;;;;;18.00;14.23;;;;;;;21.10;44.66;96267.22;4986846;28;20042;-61
2023/01/02 04:51:08;;;;;;;15.45;12.82;;;;;;;20.96;44.84;96248.19;4995891;28;20045;-61
2023/01/02 04:53:33;;;;;;;15.65;13.18;;;;;;;20.99;45.01;96259.59;4986719;28;20034;-61
2023/01/02 04:55:59;;;;;;;16.45;13.60;;;;;;;21.09;44.68;96269.19;4974787;28;20039;-60
2023/01/02 04:58:26;;;;;;;17.65;14.10;;;;;;;20.96;44.67;96235.34;4983909;28;20053;-61
2023/01/02 05:00:52;;;;;;;15.02;13.02;;;;;;;21.16;44.60;96278.94;4984406;28;20137;-62
2023/01/02 05:03:17;;;;;;;16.45;13.52;;;;;;;21.08;44.64;96262.25;4983155;28;20065;-60
2023/01/02 05:05:43;;;;;;;16.17;13.65;;;;;;;20.79;44.76;96244.34;4988228;28;20483;-59
2023/01/02 05:08:08;;;;;;;15.27;12.55;;;;;;;20.90;44.58;96234.50;4992560;28;20396;-59
2023/01/02 05:10:34;;;;;;;15.52;13.50;;;;;;;21.09;44.91;96282.78;4975619;28;20985;-61
2023/01/02 05:12:59;;;;;;;16.08;13.70;;;;;;;20.47;44.69;96177.31;4997377;28;20112;-61
2023/01/02 05:15:25;;;;;;;16.23;13.20;;;;;;;21.13;45.07;96282.59;4996848;28;20058;-60
2023/01/02 05:17:50;;;;;;;15.75;13.90;;;;;;;20.98;44.54;96251.91;5020039;28;20521;-60
2023/01/02 05:20:15;;;;;;;16.65;13.45;;;;;;;20.84;44.86;96235.59;4987457;28;20034;-59
2023/01/02 05:25:25;;;;;;;15.68;13.50;;;;;;;20.93;44.84;96243.69;4985099;28;20327;-61
2023/01/02 05:27:53;;;;;;;15.43;13.75;;;;;;;19.78;44.50;96064.84;4985236;28;20691;-61
2023/01/02 05:30:18;;;;;;;16.88;13.90;;;;;;;21.08;44.78;96267.69;4991405;28;20071;-59
2023/01/02 05:32:43;;;;;;;15.40;13.10;;;;;;;21.08;44.81;96275.09;4984776;28;20038;-60
2023/01/02 05:35:09;;;;;;;16.15;13.32;;;;;;;20.96;44.61;96244.25;4984388;28;20042;-60
2023/01/02 05:37:34;;;;;;;16.27;13.13;;;;;;;21.08;44.62;96262.25;4981113;28;20050;-61
2023/01/02 05:40:00;;;;;;;17.40;13.13;;;;;;;20.99;44.74;96240.59;4984754;28;20046;-61
2023/01/02 05:42:25;;;;;;;16.33;13.20;;;;;;;20.91;44.71;96232.50;4982020;28;20038;-62
2023/01/02 05:44:51;;;;;;;16.17;13.02;;;;;;;20.50;44.30;96160.84;4982364;28;20046;-60
2023/01/02 05:47:16;;;;;;;16.73;14.40;;;;;;;20.69;44.45;96169.66;4982016;28;20034;-61
2023/01/02 05:49:42;;;;;;;14.75;12.70;;;;;;;21.39;44.18;96267.28;4981680;28;20490;-60
2023/01/02 05:52:07;;;;;;;18.67;14.27;;;;;;;21.12;43.43;96170.50;4984223;28;20096;-60
2023/01/02 05:54:32;;;;;;;16.15;13.85;;;;;;;21.88;43.10;96258.09;4983244;28;20038;-62
2023/01/02 05:56:58;;;;;;;15.35;12.80;;;;;;;21.92;42.87;96282.41;5014727;28;20085;-61
2023/01/02 05:59:23;;;;;;;16.95;13.43;;;;;;;22.17;42.63;96267.00;4981991;28;20137;-61
2023/01/02 06:01:49;;;;;;;15.82;13.93;;;;;;;21.26;42.58;96122.84;4983936;28;20874;-60
2023/01/02 06:04:14;;;;;;;17.83;13.45;;;;;;;22.26;42.57;96272.34;4982347;28;20062;-60
2023/01/02 06:06:40;;;;;;;17.25;14.15;;;;;;;22.29;42.12;96265.97;4982634;28;20120;-60
2023/01/02 06:09:06;;;;;;;17.05;13.73;;;;;;;22.44;42.10;96274.88;4982745;28;20109;-61
2023/01/02 06:11:31;;;;;;;18.10;14.35;;;;;;;22.45;42.16;96276.34;4982787;28;20189;-60
2023/01/02 06:13:57;;;;;;;16.08;13.27;;;;;;;22.53;42.25;96280.94;4984640;28;20042;-61
2023/01/02 06:16:22;;;;;;;17.40;14.15;;;;;;;22.53;42.08;96291.81;4983303;28;20073;-62
2023/01/02 06:18:48;;;;;;;17.23;13.95;;;;;;;22.34;42.23;96273.47;4985441;28;20054;-61
2023/01/02 06:21:15;;;;;;;16.88;13.88;;;;;;;22.60;42.34;96290.69;4984723;28;20543;-61
2023/01/02 06:23:40;;;;;;;15.90;13.30;;;;;;;22.63;41.99;96295.94;4985468;28;20033;-61
2023/01/02 06:26:07;;;;;;;15.70;13.63;;;;;;;22.71;41.53;96290.84;4983986;28;20049;-61
2023/01/02 06:28:32;;;;;;;17.73;13.73;;;;;;;21.69;41.51;96125.56;4984858;28;20058;-60
2023/01/02 06:30:59;;;;;;;16.58;13.52;;;;;;;23.00;41.92;96305.91;4986787;28;20133;-61
2023/01/02 06:33:25;;;;;;;17.42;13.93;;;;;;;23.01;41.79;96299.22;4982595;28;20046;-61
2023/01/02 06:35:59;;;;;;;15.38;13.77;;;;;;;23.10;41.44;96311.97;4983153;28;20026;-62
2023/01/02 06:38:24;;;;;;;16.35;13.00;;;;;;;23.22;41.40;96308.91;4987622;28;20145;-61
2023/01/02 06:40:57;;;;;;;15.65;13.27;;;;;;;23.30;40.90;96298.34;4981989;28;20046;-61
2023/01/02 06:43:23;;;;;;;16.05;13.73;;;;;;;23.28;40.69;96279.75;4983005;28;20065;-61
2023/01/02 06:45:48;;;;;;;17.88;14.38;;;;;;;22.88;41.00;96218.28;4983010;28;20557;-61
2023/01/02 06:48:14;;;;;;;15.98;13.48;;;;;;;23.45;40.75;96302.47;4988605;28;20069;-60
2023/01/02 06:50:40;;;;;;;16.42;13.52;;;;;;;23.43;40.90;96308.41;4982945;28;20129;-64
2023/01/02 06:53:06;;;;;;;16.20;14.02;;;;;;;23.59;40.06;96305.13;4985652;28;20106;-60
2023/01/02 06:55:31;;;;;;;16.52;13.32;;;;;;;23.56;40.33;96278.09;4980954;28;20041;-61
2023/01/02 06:57:56;;;;;;;15.43;13.68;;;;;;;23.74;39.90;96299.63;4981619;28;20045;-60
2023/01/02 07:00:22;;;;;;;16.70;14.13;;;;;;;23.85;40.15;96295.03;4979559;28;20046;-60
2023/01/02 07:02:47;;;;;;;17.75;14.10;;;;;;;23.83;39.83;96302.22;4984926;28;20037;-60
2023/01/02 07:05:13;;;;;;;17.10;14.48;;;;;;;23.73;40.10;96281.75;4988110;28;20054;-61
2023/01/02 07:07:38;;;;;;;16.48;14.13;;;;;;;23.88;40.21;96305.75;4983936;28;20042;-61
2023/01/02 07:10:04;;;;;;;16.33;13.68;;;;;;;24.00;39.75;96299.13;4986966;28;20042;-60
2023/01/02 07:12:29;;;;;;;17.05;13.75;;;;;;;22.88;39.21;96128.41;4983185;28;20042;-63
2023/01/02 07:14:55;;;;;;;16.33;13.35;;;;;;;24.24;38.99;96294.13;5008520;28;20057;-62
2023/01/02 07:17:20;;;;;;;16.83;13.85;;;;;;;24.26;39.41;96308.06;4981088;28;20034;-61
2023/01/02 07:19:46;;;;;;;17.67;14.68;;;;;;;23.58;39.43;96204.72;4980966;28;20060;-60
2023/01/02 07:22:11;;;;;;;18.25;14.02;;;;;;;24.23;39.40;96297.34;4983589;28;20059;-62
2023/01/02 07:24:37;;;;;;;16.52;14.40;;;;;;;24.25;38.98;96301.09;4984155;28;20054;-60
2023/01/02 07:27:03;;;;;;;18.88;15.10;;;;;;;24.21;39.33;96299.81;4981868;28;20174;-60
2023/01/02 07:29:28;;;;;;;18.23;14.82;;;;;;;24.06;38.82;96256.25;4981137;28;20037;-61
2023/01/02 07:31:54;;;;;;;16.63;14.73;;;;;;;24.35;38.86;96277.91;5012743;28;20518;-61
2023/01/02 07:34:19;;;;;;;18.42;13.90;;;;;;;24.61;38.22;96305.88;4980524;28;20491;-62
2023/01/02 07:36:45;;;;;;;17.67;15.15;;;;;;;24.55;38.67;96307.81;4980142;28;20613;-61
2023/01/02 07:39:10;;;;;;;18.08;15.27;;;;;;;24.48;38.47;96302.78;4981517;28;20073;-61
2023/01/02 07:41:35;;;;;;;18.90;14.65;;;;;;;24.69;38.27;96301.47;5016006;28;20030;-60
2023/01/02 07:44:01;;;;;;;17.13;14.85;;;;;;;24.03;38.02;96219.03;4981645;28;20045;-60
2023/01/02 07:46:26;;;;;;;16.40;14.57;;;;;;;24.66;37.94;96305.16;4981234;28;20050;-61
2023/01/02 07:48:52;;;;;;;18.27;14.68;;;;;;;24.69;38.37;96307.66;4984718;28;20046;-61
2023/01/02 07:51:17;;;;;;;19.02;14.27;;;;;;;24.60;38.19;96290.72;4985563;28;20066;-60
2023/01/02 07:53:43;;;;;;;18.20;15.10;;;;;;;24.76;38.07;96311.94;4984257;28;20537;-62
2023/01/02 07:56:08;;;;;;;19.23;16.02;;;;;;;24.70;38.04;96308.44;4986591;28;20790;-62
2023/01/02 07:58:33;;;;;;;18.33;15.25;;;;;;;24.82;37.94;96311.47;4986688;28;20550;-60
2023/01/02 08:01:04;;;;;;;19.33;14.98;;;;;;;24.77;37.88;96291.56;4985489;28;20038;-61
2023/01/02 08:03:30;;;;;;;18.13;15.18;;;;;;;25.01;37.50;96318.09;4987967;28;20085;-60
2023/01/02 08:06:04;;;;;;;19.25;15.27;;;;;;;24.92;37.40;96310.06;4988035;28;20043;-61
2023/01/02 08:08:30;;;;;;;17.90;15.30;;;;;;;24.93;37.51;96308.84;4985529;28;20037;-62
2023/01/02 08:10:55;;;;;;;18.05;15.55;;;;;;;25.03;37.64;96303.94;4984051;28;20050;-62
2023/01/02 08:13:21;;;;;;;18.20;15.57;;;;;;;24.42;37.22;96222.81;4967668;28;20057;-61
2023/01/02 08:15:46;;;;;;;20.23;16.05;;;;;;;23.86;37.32;96136.31;4985753;28;20499;-61
2023/01/02 08:18:11;;;;;;;18.55;15.48;;;;;;;25.21;37.28;96309.75;4985115;28;20061;-61
2023/01/02 08:20:37;;;;;;;19.42;15.88;;;;;;;25.22;37.43;96302.31;5015894;28;20093;-61
2023/01/02 08:23:02;;;;;;;19.08;15.65;;;;;;;25.14;37.37;96314.91;4986045;28;20043;-61
2023/01/02 08:25:28;;;;;;;19.92;15.73;;;;;;;25.16;37.85;96302.28;4983588;28;20054;-62
2023/01/02 08:27:53;;;;;;;18.77;14.45;;;;;;;25.13;37.47;96303.25;4984983;28;20104;-61
2023/01/02 08:30:19;;;;;;;20.08;15.48;;;;;;;25.17;37.43;96303.78;4985204;28;20053;-62
2023/01/02 08:32:44;;;;;;;18.58;15.38;;;;;;;24.51;37.32;96189.84;5026927;28;20550;-61
2023/01/02 08:35:09;;;;;;;19.40;15.77;;;;;;;25.04;37.39;96294.50;4986014;28;20030;-61
2023/01/02 08:37:35;;;;;;;19.45;16.13;;;;;;;25.00;37.89;96294.72;4983286;28;20042;-60
2023/01/02 08:40:01;;;;;;;19.25;16.00;;;;;;;25.00;37.56;96294.72;4986397;28;20050;-61
2023/01/02 08:42:26;;;;;;;19.60;16.17;;;;;;;24.80;37.97;96298.78;4986303;28;20144;-60
2023/01/02 08:44:52;;;;;;;19.17;15.48;;;;;;;24.91;37.48;96292.16;4984066;28;20097;-60
2023/01/02 08:47:18;;;;;;;19.13;15.43;;;;;;;24.85;37.85;96266.78;4964863;28;20419;-61
2023/01/02 08:49:43;;;;;;;18.30;15.52;;;;;;;25.01;37.50;96288.03;4983297;28;20046;-60
2023/01/02 08:52:08;;;;;;;17.73;15.68;;;;;;;24.97;37.75;96294.94;4984320;28;20053;-61
2023/01/02 08:54:34;;;;;;;19.25;16.08;;;;;;;25.15;37.63;96295.28;4984457;28;20603;-61
2023/01/02 08:56:59;;;;;;;19.25;15.90;;;;;;;25.07;37.64;96288.81;4991979;28;20049;-61
2023/01/02 08:59:25;;;;;;;20.05;16.45;;;;;;;24.91;37.72;96259.34;4991195;28;20089;-59
2023/01/02 09:01:51;;;;;;;19.67;15.52;;;;;;;24.66;37.18;96220.47;4985925;28;20053;-61
2023/01/02 09:04:16;;;;;;;19.45;15.52;;;;;;;25.16;37.08;96285.88;4984801;28;20046;-61
2023/01/02 09:06:42;;;;;;;20.60;16.45;;;;;;;24.98;37.71;96267.09;4986038;28;20039;-60
2023/01/02 09:09:08;;;;;;;20.35;16.48;;;;;;;24.69;37.69;96247.56;5017637;28;20195;-60
2023/01/02 09:11:37;;;;;;;19.45;16.60;;;;;;;24.85;37.90;96261.31;4982660;28;20036;-60
2023/01/02 09:14:03;;;;;;;19.90;16.58;;;;;;;25.01;37.65;96257.97;4985074;28;20058;-61
2023/01/02 09:16:29;;;;;;;18.95;16.38;;;;;;;25.13;37.31;96250.56;4982541;28;20141;-61
2023/01/02 09:18:55;;;;;;;20.85;17.15;;;;;;;25.21;37.12;96259.78;4977070;28;20047;-60
2023/01/02 09:21:21;;;;;;;18.83;16.45;;;;;;;24.99;37.67;96303.41;4985630;28;20153;-60
2023/01/02 09:23:46;;;;;;;20.83;17.38;;;;;;;24.89;37.26;96234.50;4985679;28;20120;-60
2023/01/02 09:26:12;;;;;;;20.52;16.67;;;;;;;25.20;36.90;96252.81;4984532;28;20422;-61
2023/01/02 09:28:38;;;;;;;21.17;16.95;;;;;;;25.20;36.83;96223.50;4989378;28;20672;-60
2023/01/02 09:31:07;;;;;;;21.23;16.83;;;;;;;25.15;37.37;96251.56;4958810;28;20050;-62
2023/01/02 09:33:33;;;;;;;20.17;16.60;;;;;;;25.12;36.88;96219.00;4983788;28;20500;-60
2023/01/02 09:36:05;;;;;;;21.90;17.10;;;;;;;25.07;37.24;96219.72;4984793;28;20046;-61
2023/01/02 09:38:31;;;;;;;20.63;16.83;;;;;;;23.85;37.44;96056.94;4989461;28;20030;-60
2023/01/02 09:40:56;;;;;;;21.27;17.33;;;;;;;25.16;37.25;96214.03;4991857;28;20062;-60
2023/01/02 09:43:28;;;;;;;21.33;17.55;;;;;;;25.05;37.46;96228.41;4984543;28;20507;-61
2023/01/02 09:45:54;;;;;;;21.63;17.05;;;;;;;24.80;37.95;96187.53;5006099;28;20097;-62
2023/01/02 09:48:21;;;;;;;20.13;16.20;;;;;;;25.22;37.81;96223.75;4983055;28;20411;-59
2023/01/02 09:50:46;;;;;;;20.05;16.73;;;;;;;25.09;38.57;96209.78;4957243;28;20035;-62
2023/01/02 09:53:12;;;;;;;19.40;15.73;;;;;;;25.09;39.43;96209.78;4985885;28;20033;-61
2023/01/02 09:55:43;;;;;;;22.35;17.13;;;;;;;25.08;40.92;96202.84;4995052;28;20906;-61
2023/01/02 09:58:15;;;;;;;20.23;16.20;;;;;;;25.01;39.53;96208.75;5000568;28;20100;-60
2023/01/02 10:00:41;;;;;;;20.40;16.80;;;;;;;24.97;38.15;96191.81;4972962;28;20061;-63
2023/01/02 10:03:20;;;;;;;21.33;17.65;;;;;;;25.31;40.17;96193.44;5004382;28;20113;-61
2023/01/02 10:06:13;;;;;;;21.63;17.15;;;;;;;25.40;40.33;96201.44;4989666;28;20030;-62
2023/01/02 10:08:51;;;;;;;19.48;15.90;;;;;;;24.99;42.06;96192.13;4994252;28;20117;-62
2023/01/02 10:11:22;;;;;;;21.88;17.42;;;;;;;25.06;40.50;96205.28;4976424;28;20044;-61
2023/01/02 10:14:12;;;;;;;20.15;16.80;;;;;;;24.97;39.11;96180.88;4986268;28;20049;-61
2023/01/02 10:16:40;;;;;;;22.23;17.25;;;;;;;25.24;38.39;96171.31;4984859;28;20053;-59
2023/01/02 10:19:11;;;;;;;20.45;16.58;;;;;;;25.48;38.12;96159.41;5016977;28;20183;-61
2023/01/02 10:21:37;;;;;;;20.83;17.40;;;;;;;25.35;38.17;96167.38;5000466;28;20483;-61
2023/01/02 10:24:26;;;;;;;21.15;17.05;;;;;;;25.52;37.58;96165.41;4985560;28;20050;-61
2023/01/02 10:26:52;;;;;;;21.52;16.75;;;;;;;25.47;37.94;96151.69;4982498;28;20046;-62
2023/01/02 10:30:06;;;;;;;22.00;17.42;;;;;;;25.54;37.73;96156.69;4984388;28;20030;-61
2023/01/02 10:32:32;;;;;;;21.67;17.80;;;;;;;23.83;37.68;95923.03;4967124;28;20050;-61
2023/01/02 10:34:57;;;;;;;22.45;18.02;;;;;;;25.22;37.72;96158.13;4984022;28;20034;-61
2023/01/02 10:37:24;;;;;;;20.92;17.55;;;;;;;25.29;37.86;96154.16;4983235;28;20038;-62
2023/01/02 10:39:49;;;;;;;19.65;17.02;;;;;;;24.24;37.67;95988.41;4970444;28;20069;-61
2023/01/02 10:42:14;;;;;;;21.83;17.42;;;;;;;25.19;38.10;96148.19;4984595;28;20817;-60
2023/01/02 10:44:40;;;;;;;21.95;17.67;;;;;;;25.35;37.69;96148.22;4984179;28;20035;-63
2023/01/02 10:47:16;;;;;;;21.35;17.23;;;;;;;25.30;37.62;96142.72;4990971;28;20042;-60
2023/01/02 10:49:41;;;;;;;21.55;18.00;;;;;;;25.27;37.58;96132.78;5017601;28;20043;-61
2023/01/02 10:52:28;;;;;;;21.42;17.85;;;;;;;25.40;37.35;96141.25;4984781;28;20613;-63
2023/01/02 10:54:55;;;;;;;21.10;17.35;;;;;;;25.23;37.35;96104.97;4982871;28;20724;-61
2023/01/02 10:57:23;;;;;;;21.48;17.70;;;;;;;25.43;37.13;96123.88;4983580;28;20940;-61
2023/01/02 10:59:53;;;;;;;19.60;16.80;;;;;;;25.30;37.32;96120.84;4988083;28;20074;-61
2023/01/02 11:02:31;;;;;;;21.67;17.45;;;;;;;25.34;37.32;96118.63;4988398;28;20035;-61
2023/01/02 11:05:00;;;;;;;20.83;17.02;;;;;;;25.45;37.01;96115.91;4967843;28;20058;-61
2023/01/02 11:07:26;;;;;;;;;;;;;;;25.47;37.33;96107.94;4984506;28;20087;-61
2023/01/02 11:09:55;;;;;;;21.30;17.47;;;;;;;25.45;37.05;96104.97;4993276;28;20008;-61
2023/01/02 11:12:21;;;;;;;20.15;17.83;;;;;;;25.07;37.29;96070.13;4966641;28;20293;-61
2023/01/02 11:14:46;;;;;;;20.67;17.08;;;;;;;25.45;37.11;96099.50;4984293;28;20034;-61
2023/01/02 11:17:16;;;;;;;21.50;17.98;;;;;;;25.47;37.31;96102.47;4984140;28;20045;-61
2023/01/02 11:19:48;;;;;;;40.88;19.20;;;;;;;25.52;37.26;96099.00;4983870;28;20058;-60
2023/01/02 11:22:15;;;;;;;28.52;18.77;;;;;;;25.46;36.76;96090.78;4992717;28;20549;-60
2023/01/02 11:24:59;;;;;;;25.38;18.83;;;;;;;25.63;36.75;96096.25;4967111;28;20050;-61